Time;durP1;ratioP1;P1;durP2;ratioP2;P2;SDS_P1;SDS_P2;PMS_P1;PMS_P2;Temp;Humidity;BMP_temperature;BMP_pressure;BME280_temperature;BME280_humidity;BME280_pressure;Samples;Min_cycle;Max_cycle;Signal;HPM_P1;HPM_P2
2023/07/18 00:01:41;;;;;;;5.88;3.88;;;15.40;99.90;;;;;;5009717;28;20506;-78
2023/07/18 00:04:07;;;;;;;5.03;4.03;;;15.40;99.90;;;;;;5011099;28;20026;-77
2023/07/18 00:06:33;;;;;;;9.80;4.32;;;15.40;99.90;;;;;;5010904;28;20388;-78
2023/07/18 00:08:59;;;;;;;5.93;3.80;;;15.40;99.90;;;;;;5011181;28;20047;-79
2023/07/18 00:11:24;;;;;;;8.23;4.10;;;15.40;99.90;;;;;;5009535;28;20051;-79
2023/07/18 00:13:50;;;;;;;8.70;4.40;;;15.40;99.90;;;;;;5009852;28;20014;-79
2023/07/18 00:16:16;;;;;;;7.63;5.78;;;15.40;99.90;;;;;;5009646;28;20384;-79
2023/07/18 00:18:42;;;;;;;7.90;5.30;;;15.40;99.90;;;;;;5009779;28;20475;-78
2023/07/18 00:21:07;;;;;;;7.45;5.55;;;15.30;99.90;;;;;;5009454;28;20026;-77
2023/07/18 00:23:33;;;;;;;10.38;6.05;;;15.40;99.90;;;;;;5010883;28;20018;-78
2023/07/18 00:26:00;;;;;;;9.57;4.78;;;15.40;99.90;;;;;;5010103;28;20045;-79
2023/07/18 00:28:25;;;;;;;6.80;5.18;;;15.40;99.90;;;;;;5009565;28;20018;-77
2023/07/18 00:30:51;;;;;;;6.07;5.45;;;15.40;99.90;;;;;;5009192;28;20386;-79
2023/07/18 00:33:16;;;;;;;5.53;4.38;;;15.40;99.90;;;;;;5009583;28;20022;-79
2023/07/18 00:35:43;;;;;;;7.78;5.13;;;15.30;99.90;;;;;;5009346;28;20095;-77
2023/07/18 00:38:11;;;;;;;6.25;4.70;;;15.40;99.90;;;;;;4989904;28;20112;-78
2023/07/18 00:40:40;;;;;;;10.45;5.30;;;15.40;99.90;;;;;;5006058;28;20145;-78
2023/07/18 00:43:12;;;;;;;8.10;6.20;;;15.40;99.90;;;;;;4991100;28;20109;-78
2023/07/18 00:45:38;;;;;;;13.23;7.97;;;15.30;99.90;;;;;;4991179;28;20109;-77
2023/07/18 00:48:05;;;;;;;13.00;6.72;;;15.30;99.90;;;;;;4991214;28;20034;-77
2023/07/18 00:50:31;;;;;;;12.40;7.78;;;15.30;99.90;;;;;;4989754;28;20030;-77
2023/07/18 00:52:57;;;;;;;17.55;8.23;;;15.40;99.90;;;;;;4991124;28;20058;-77
2023/07/18 00:55:23;;;;;;;16.05;8.45;;;15.40;99.90;;;;;;4990994;28;20085;-79
2023/07/18 00:57:49;;;;;;;18.50;9.00;;;15.40;99.90;;;;;;4989567;28;20089;-78
2023/07/18 01:00:16;;;;;;;18.25;8.98;;;15.50;99.90;;;;;;4990208;28;20109;-80
2023/07/18 01:02:44;;;;;;;18.88;7.90;;;15.50;99.90;;;;;;4990920;28;20065;-77
2023/07/18 01:05:10;;;;;;;11.40;6.60;;;15.50;99.90;;;;;;4990730;28;20407;-77
2023/07/18 01:07:39;;;;;;;18.30;6.88;;;15.50;99.90;;;;;;4990747;28;20085;-78
2023/07/18 01:10:23;;;;;;;17.30;6.55;;;15.50;99.90;;;;;;4989363;28;20026;-79
2023/07/18 01:12:52;;;;;;;24.27;9.45;;;15.50;99.90;;;;;;4989508;28;20031;-81
2023/07/18 01:15:22;;;;;;;32.83;11.40;;;15.50;99.90;;;;;;4989444;28;20388;-81
2023/07/18 01:17:48;;;;;;;38.60;14.02;;;15.60;99.90;;;;;;4990694;28;20223;-77
2023/07/18 01:20:20;;;;;;;41.85;16.23;;;15.60;99.90;;;;;;4990604;28;20034;-78
2023/07/18 01:22:48;;;;;;;52.63;15.98;;;15.70;99.90;;;;;;4989486;28;20067;-77
2023/07/18 01:25:16;;;;;;;44.35;15.23;;;15.70;99.90;;;;;;4990636;28;20062;-77
2023/07/18 01:27:45;;;;;;;46.30;12.60;;;15.80;99.90;;;;;;4990734;28;20504;-78
2023/07/18 01:30:11;;;;;;;47.30;13.52;;;15.70;99.90;;;;;;4990526;28;20049;-77
2023/07/18 01:32:37;;;;;;;45.15;14.13;;;15.80;99.90;;;;;;4990672;28;20039;-78
2023/07/18 01:35:05;;;;;;;83.60;13.02;;;15.80;99.90;;;;;;4990465;28;20026;-78
2023/07/18 01:37:32;;;;;;;60.58;13.07;;;15.70;99.90;;;;;;4989572;28;20072;-79
2023/07/18 01:39:58;;;;;;;63.95;12.75;;;15.60;99.90;;;;;;4992444;28;20080;-78
2023/07/18 01:42:24;;;;;;;50.90;12.88;;;15.60;99.90;;;;;;4993288;28;20026;-77
2023/07/18 01:44:49;;;;;;;36.15;12.13;;;15.50;99.90;;;;;;4992494;28;20034;-77
2023/07/18 01:47:15;;;;;;;31.77;13.50;;;15.60;99.90;;;;;;4993857;28;20038;-77
2023/07/18 01:49:41;;;;;;;42.40;14.18;;;15.60;99.90;;;;;;4993588;28;20533;-77
2023/07/18 01:52:07;;;;;;;33.88;13.60;;;15.70;99.90;;;;;;4992313;28;20480;-79
2023/07/18 01:54:33;;;;;;;33.75;13.75;;;15.70;99.90;;;;;;4992256;28;20138;-78
2023/07/18 01:56:58;;;;;;;52.35;16.08;;;15.70;99.90;;;;;;4992332;28;20117;-78
2023/07/18 01:59:24;;;;;;;48.40;16.75;;;15.80;99.90;;;;;;4993504;28;20095;-78
2023/07/18 02:01:51;;;;;;;75.63;20.27;;;15.90;99.90;;;;;;4992698;28;20026;-77
2023/07/18 02:04:18;;;;;;;54.50;19.00;;;15.90;99.90;;;;;;4991908;28;20388;-78
2023/07/18 02:06:43;;;;;;;51.55;16.73;;;16.00;99.90;;;;;;4996768;28;20029;-78
2023/07/18 02:09:10;;;;;;;63.55;20.40;;;16.00;99.90;;;;;;5011633;28;20372;-78
2023/07/18 02:11:35;;;;;;;63.70;19.58;;;16.10;99.90;;;;;;5011414;28;20022;-78
2023/07/18 02:14:03;;;;;;;42.67;16.60;;;16.10;99.90;;;;;;5011489;28;20018;-78
2023/07/18 02:16:29;;;;;;;137.15;22.73;;;16.10;99.90;;;;;;5011327;28;20048;-79
2023/07/18 02:18:59;;;;;;;93.00;23.20;;;16.10;99.90;;;;;;5011408;28;20032;-77
2023/07/18 02:21:24;;;;;;;75.15;43.25;;;16.10;99.90;;;;;;5012627;28;20113;-79
2023/07/18 02:23:50;;;;;;;98.72;59.70;;;16.80;99.90;;;;;;5011241;28;20045;-78
2023/07/18 02:26:15;;;;;;;71.15;45.78;;;17.00;99.90;;;;;;5011457;28;20026;-78
2023/07/18 02:28:41;;;;;;;50.22;36.53;;;17.00;99.90;;;;;;5012392;28;20100;-79
2023/07/18 02:31:07;;;;;;;43.88;30.80;;;16.90;99.90;;;;;;5011485;28;20026;-78
2023/07/18 02:33:32;;;;;;;41.10;26.45;;;17.00;99.90;;;;;;5012331;28;20105;-78
2023/07/18 02:35:58;;;;;;;35.38;23.77;;;17.00;99.90;;;;;;5011362;28;20026;-78
2023/07/18 02:38:24;;;;;;;30.15;22.40;;;17.00;99.90;;;;;;5011005;28;20025;-80
2023/07/18 02:40:50;;;;;;;27.17;20.35;;;17.10;99.90;;;;;;5011278;28;20033;-77
2023/07/18 02:43:16;;;;;;;22.95;17.42;;;17.00;99.90;;;;;;5012301;28;20030;-78
2023/07/18 02:45:41;;;;;;;21.75;15.18;;;17.00;99.90;;;;;;5010908;28;20394;-78
2023/07/18 02:48:07;;;;;;;18.98;13.90;;;16.90;99.90;;;;;;5012122;28;20026;-78
2023/07/18 02:50:32;;;;;;;17.25;13.00;;;16.90;99.90;;;;;;5012122;28;20026;-77
2023/07/18 02:52:58;;;;;;;15.40;12.18;;;16.80;99.90;;;;;;5012102;28;20036;-80
2023/07/18 02:55:24;;;;;;;17.35;10.27;;;16.70;99.90;;;;;;5010946;28;20069;-77
2023/07/18 02:57:51;;;;;;;10.80;8.57;;;16.70;99.90;;;;;;5010668;28;20034;-79
2023/07/18 03:00:19;;;;;;;12.55;7.78;;;16.60;99.90;;;;;;5012108;28;20449;-78
2023/07/18 03:02:49;;;;;;;14.52;6.43;;;16.60;99.90;;;;;;5010700;28;20018;-79
2023/07/18 03:05:17;;;;;;;8.80;6.15;;;16.50;99.90;;;;;;5012237;28;20036;-77
2023/07/18 03:07:43;;;;;;;12.68;6.97;;;16.50;99.90;;;;;;5011889;28;20622;-78
2023/07/18 03:10:09;;;;;;;10.05;6.18;;;16.40;99.90;;;;;;5012112;28;20033;-77
2023/07/18 03:12:34;;;;;;;14.00;7.10;;;16.30;99.90;;;;;;5011837;28;20022;-78
2023/07/18 03:15:00;;;;;;;10.80;6.15;;;16.20;99.90;;;;;;5011989;28;20037;-79
2023/07/18 03:17:25;;;;;;;10.52;6.28;;;16.20;99.90;;;;;;5010435;28;20026;-78
2023/07/18 03:19:51;;;;;;;11.55;5.95;;;16.10;99.90;;;;;;5010536;28;20041;-80
2023/07/18 03:22:17;;;;;;;8.32;5.57;;;16.00;99.90;;;;;;5011657;28;20456;-80
2023/07/18 03:24:42;;;;;;;12.05;6.38;;;15.90;99.90;;;;;;5011883;28;20074;-78
2023/07/18 03:27:08;;;;;;;8.98;5.80;;;15.90;99.90;;;;;;5011486;28;20369;-77
2023/07/18 03:29:33;;;;;;;11.27;4.97;;;15.90;99.90;;;;;;5011722;28;20064;-77
2023/07/18 03:32:00;;;;;;;10.13;6.13;;;15.90;99.90;;;;;;5010186;28;20029;-79
2023/07/18 03:34:27;;;;;;;11.57;6.20;;;15.90;99.90;;;;;;5010352;28;20528;-78
2023/07/18 03:36:53;;;;;;;12.93;5.28;;;15.90;99.90;;;;;;5011679;28;20384;-78
2023/07/18 03:39:19;;;;;;;9.80;4.88;;;15.90;99.90;;;;;;5011252;28;20041;-79
2023/07/18 03:41:44;;;;;;;9.50;5.55;;;15.90;99.90;;;;;;5010377;28;20026;-77
2023/07/18 03:44:10;;;;;;;11.48;5.53;;;16.00;99.90;;;;;;5011310;28;20030;-78
2023/07/18 03:46:36;;;;;;;11.05;5.05;;;16.10;99.90;;;;;;5010313;28;20051;-77
2023/07/18 03:49:01;;;;;;;11.38;5.15;;;16.20;99.90;;;;;;5011187;28;20034;-77
2023/07/18 03:51:27;;;;;;;7.75;5.13;;;16.30;99.90;;;;;;5011593;28;20404;-78
2023/07/18 03:53:52;;;;;;;9.18;5.88;;;16.30;99.90;;;;;;5009657;28;20032;-80
2023/07/18 03:56:19;;;;;;;9.95;4.90;;;16.50;99.90;;;;;;5010163;28;20440;-81
2023/07/18 03:58:45;;;;;;;9.73;5.15;;;16.60;99.90;;;;;;5009597;28;20402;-78
2023/07/18 04:01:11;;;;;;;6.68;4.30;;;16.70;99.90;;;;;;5010522;28;20026;-77
2023/07/18 04:03:37;;;;;;;18.48;5.47;;;16.80;99.90;;;;;;5009745;28;20068;-78
2023/07/18 04:06:03;;;;;;;9.27;4.75;;;16.90;99.90;;;;;;5011202;28;20524;-79
2023/07/18 04:08:29;;;;;;;9.82;4.57;;;17.00;99.90;;;;;;5009551;28;20034;-79
2023/07/18 04:10:58;;;;;;;12.27;4.57;;;17.30;99.90;;;;;;5009718;28;20033;-78
2023/07/18 04:13:25;;;;;;;9.88;5.07;;;17.60;99.90;;;;;;5010891;28;20403;-78
2023/07/18 04:15:53;;;;;;;9.77;4.05;;;17.80;99.90;;;;;;5009783;28;20113;-80
2023/07/18 04:18:19;;;;;;;10.35;4.35;;;17.90;99.90;;;;;;5009766;28;20037;-80
2023/07/18 04:20:44;;;;;;;5.20;4.38;;;18.00;99.90;;;;;;5009740;28;20080;-78
2023/07/18 04:23:10;;;;;;;9.00;4.57;;;18.20;99.90;;;;;;5009557;28;20382;-79
2023/07/18 04:25:54;;;;;;;8.30;4.95;;;18.40;99.90;;;;;;5010983;28;20034;-79
2023/07/18 04:28:20;;;;;;;10.13;5.38;;;18.40;99.90;;;;;;5009484;28;20030;-78
2023/07/18 04:30:45;;;;;;;6.00;4.47;;;18.50;99.90;;;;;;5010787;28;20030;-79
2023/07/18 04:33:12;;;;;;;9.98;5.13;;;18.50;99.90;;;;;;5010547;28;20079;-78
2023/07/18 04:35:39;;;;;;;6.80;4.63;;;18.40;99.90;;;;;;5009394;28;20026;-78
2023/07/18 04:38:06;;;;;;;5.70;3.90;;;18.50;99.90;;;;;;5009547;28;20037;-78
2023/07/18 04:40:31;;;;;;;9.00;4.32;;;18.60;99.90;;;;;;5010511;28;20044;-80
2023/07/18 04:42:57;;;;;;;9.85;4.38;;;18.70;99.90;;;;;;5009229;28;20380;-78
2023/07/18 04:45:22;;;;;;;8.48;4.45;;;18.70;99.90;;;;;;5009308;28;20045;-79
2023/07/18 04:47:48;;;;;;;7.72;4.43;;;18.80;99.90;;;;;;5009094;28;20071;-79
2023/07/18 04:50:14;;;;;;;7.47;4.93;;;18.90;99.90;;;;;;5009317;28;20391;-80
2023/07/18 04:52:39;;;;;;;6.82;4.20;;;19.00;99.90;;;;;;5009017;28;20507;-78
2023/07/18 04:55:05;;;;;;;9.18;4.53;;;19.00;99.90;;;;;;5009114;28;20046;-79
2023/07/18 04:57:31;;;;;;;9.20;4.40;;;18.90;97.00;;;;;;5009055;28;20022;-79
2023/07/18 04:59:57;;;;;;;6.43;4.22;;;18.90;99.90;;;;;;5010429;28;20042;-80
2023/07/18 05:02:23;;;;;;;7.53;4.18;;;19.00;99.20;;;;;;5010591;28;20036;-78
2023/07/18 05:04:48;;;;;;;10.07;4.53;;;18.90;92.30;;;;;;5010195;28;20026;-78
2023/07/18 05:07:14;;;;;;;6.90;4.45;;;18.90;93.20;;;;;;5010509;28;20036;-79
2023/07/18 05:09:40;;;;;;;8.55;5.53;;;19.00;95.50;;;;;;5008766;28;20071;-78
2023/07/18 05:12:06;;;;;;;12.85;7.72;;;19.00;96.10;;;;;;5011522;28;20472;-79
2023/07/18 05:14:32;;;;;;;12.50;8.60;;;19.10;99.90;;;;;;5013707;28;20022;-78
2023/07/18 05:16:58;;;;;;;16.52;9.23;;;19.10;99.90;;;;;;5013972;28;20079;-78
2023/07/18 05:19:24;;;;;;;15.50;8.27;;;19.00;99.90;;;;;;5012012;28;20107;-80
2023/07/18 05:21:50;;;;;;;12.10;7.68;;;18.90;99.90;;;;;;5010820;28;20109;-78
2023/07/18 05:24:16;;;;;;;9.77;6.15;;;18.90;99.90;;;;;;5013283;28;20026;-80
2023/07/18 05:26:42;;;;;;;9.55;4.55;;;18.90;99.90;;;;;;5012262;28;20038;-78
2023/07/18 05:29:07;;;;;;;16.25;9.10;;;18.80;99.90;;;;;;5011884;28;20029;-78
2023/07/18 05:31:33;;;;;;;22.15;11.65;;;18.80;99.90;;;;;;5007312;28;20033;-78
2023/07/18 05:33:59;;;;;;;6.80;5.38;;;18.80;99.90;;;;;;5003239;28;20026;-77
2023/07/18 05:36:25;;;;;;;15.90;8.82;;;18.80;99.90;;;;;;5002582;28;20019;-80
2023/07/18 05:38:51;;;;;;;28.25;14.68;;;18.80;99.90;;;;;;5000428;28;20038;-81
2023/07/18 05:41:16;;;;;;;19.50;8.80;;;18.90;99.90;;;;;;5002228;28;20376;-80
2023/07/18 05:43:42;;;;;;;34.53;17.15;;;18.80;99.90;;;;;;4993453;28;20033;-80
2023/07/18 05:46:09;;;;;;;25.70;13.38;;;18.80;99.90;;;;;;4997456;28;20031;-80
2023/07/18 05:48:34;;;;;;;30.30;17.95;;;18.80;99.90;;;;;;5004580;28;20041;-78
2023/07/18 05:51:01;;;;;;;12.13;6.72;;;18.80;99.90;;;;;;5001013;28;20069;-79
2023/07/18 05:53:26;;;;;;;31.70;17.33;;;18.90;99.90;;;;;;4993562;28;20037;-80
2023/07/18 05:55:52;;;;;;;19.75;12.90;;;19.00;99.90;;;;;;4992247;28;20046;-78
2023/07/18 05:58:18;;;;;;;9.18;5.15;;;19.10;97.50;;;;;;5002878;28;20026;-79
2023/07/18 06:00:44;;;;;;;6.65;3.83;;;19.10;94.90;;;;;;5011636;28;20400;-81
2023/07/18 06:03:09;;;;;;;16.50;9.75;;;19.10;93.40;;;;;;5011329;28;20079;-81
2023/07/18 06:05:35;;;;;;;7.35;4.57;;;19.10;91.10;;;;;;5012656;28;20079;-80
2023/07/18 06:08:00;;;;;;;7.63;5.55;;;19.10;91.30;;;;;;5012228;28;20033;-79
2023/07/18 06:10:26;;;;;;;6.40;4.68;;;19.20;91.10;;;;;;5011520;28;20014;-80
2023/07/18 06:12:52;;;;;;;10.50;5.82;;;19.30;91.10;;;;;;5013041;28;20030;-79
2023/07/18 06:15:18;;;;;;;8.93;6.32;;;19.30;92.70;;;;;;5012722;28;20030;-80
2023/07/18 06:17:44;;;;;;;7.63;4.20;;;19.30;89.60;;;;;;5012950;28;20024;-79
2023/07/18 06:20:12;;;;;;;7.07;3.58;;;19.40;87.90;;;;;;5012467;28;20108;-79
2023/07/18 06:22:38;;;;;;;5.63;3.60;;;19.40;87.70;;;;;;5011576;28;20094;-79
2023/07/18 06:25:04;;;;;;;6.32;3.95;;;19.30;86.30;;;;;;5011698;28;20428;-80
2023/07/18 06:27:31;;;;;;;9.02;4.10;;;19.40;84.40;;;;;;5012443;28;20026;-80
2023/07/18 06:29:56;;;;;;;6.82;4.38;;;19.70;87.60;;;;;;5008565;28;20022;-79
2023/07/18 06:32:23;;;;;;;7.32;3.35;;;19.70;82.20;;;;;;5009393;28;20120;-79
2023/07/18 06:34:49;;;;;;;6.05;3.47;;;19.80;80.60;;;;;;5008960;28;20030;-79
2023/07/18 06:37:15;;;;;;;6.57;3.20;;;19.80;79.10;;;;;;5009632;28;20036;-79
2023/07/18 06:39:41;;;;;;;8.15;3.38;;;19.70;78.00;;;;;;4995133;28;20043;-80
2023/07/18 06:42:08;;;;;;;8.70;4.07;;;19.70;79.70;;;;;;4987816;28;20502;-79
2023/07/18 06:44:34;;;;;;;7.68;4.20;;;19.80;82.10;;;;;;5000963;28;20026;-80
2023/07/18 06:47:00;;;;;;;8.23;3.47;;;20.00;80.30;;;;;;5008523;28;20071;-80
2023/07/18 06:49:26;;;;;;;7.55;3.17;;;20.00;79.30;;;;;;5004993;28;20079;-80
2023/07/18 06:51:52;;;;;;;4.10;2.78;;;20.00;76.70;;;;;;4990843;28;20026;-80
2023/07/18 06:54:18;;;;;;;3.20;2.53;;;19.90;74.50;;;;;;4999152;28;20132;-80
2023/07/18 06:56:45;;;;;;;6.40;2.58;;;20.10;76.90;;;;;;5009164;28;20463;-79
2023/07/18 06:59:13;;;;;;;4.97;3.42;;;20.20;75.10;;;;;;5002559;28;20054;-80
2023/07/18 07:01:39;;;;;;;8.23;3.92;;;20.40;77.30;;;;;;4990509;28;20038;-80
2023/07/18 07:04:05;;;;;;;9.50;4.00;;;20.50;74.40;;;;;;5009941;28;20025;-79
2023/07/18 07:06:31;;;;;;;5.95;3.13;;;20.60;73.40;;;;;;5007550;28;20048;-79
2023/07/18 07:08:56;;;;;;;10.68;4.57;;;20.70;72.70;;;;;;5009864;28;20391;-79
2023/07/18 07:11:22;;;;;;;4.22;2.60;;;20.80;71.60;;;;;;5009991;28;20026;-79
2023/07/18 07:13:48;;;;;;;7.78;2.60;;;20.80;71.70;;;;;;5009941;28;20046;-79
2023/07/18 07:16:14;;;;;;;8.00;3.58;;;20.70;69.10;;;;;;5009321;28;20049;-79
2023/07/18 07:18:39;;;;;;;8.40;3.53;;;20.80;72.00;;;;;;5010098;28;20022;-79
2023/07/18 07:21:05;;;;;;;5.05;2.50;;;20.80;72.40;;;;;;5012051;28;20095;-80
2023/07/18 07:23:31;;;;;;;5.53;2.40;;;20.80;70.90;;;;;;5008450;28;20409;-79
2023/07/18 07:25:58;;;;;;;4.05;2.40;;;20.60;67.00;;;;;;5008670;28;20140;-80
2023/07/18 07:28:23;;;;;;;3.92;2.80;;;20.50;68.20;;;;;;5010023;28;20480;-80
2023/07/18 07:30:50;;;;;;;7.72;3.05;;;20.70;70.00;;;;;;5008504;28;20037;-80
2023/07/18 07:33:16;;;;;;;4.38;2.38;;;20.80;69.60;;;;;;5010251;28;20025;-80
2023/07/18 07:35:43;;;;;;;7.68;2.55;;;21.10;71.00;;;;;;5008224;28;20034;-79
2023/07/18 07:38:09;;;;;;;4.10;3.08;;;21.00;68.50;;;;;;5010166;28;20053;-80
2023/07/18 07:40:35;;;;;;;6.55;3.00;;;21.30;69.70;;;;;;5011357;28;20034;-80
2023/07/18 07:43:00;;;;;;;5.38;3.80;;;21.20;66.70;;;;;;5011710;28;20026;-79
2023/07/18 07:45:26;;;;;;;5.55;3.47;;;21.30;68.10;;;;;;5010017;28;20053;-80
2023/07/18 07:47:51;;;;;;;3.17;2.60;;;21.50;70.10;;;;;;5011549;28;20025;-80
2023/07/18 07:50:17;;;;;;;5.30;2.90;;;21.40;67.70;;;;;;5011327;28;20022;-80
2023/07/18 07:52:43;;;;;;;6.90;3.00;;;21.90;69.80;;;;;;5011542;28;20037;-79
2023/07/18 07:55:12;;;;;;;5.75;3.03;;;22.00;67.40;;;;;;5010981;28;20576;-81
2023/07/18 07:57:38;;;;;;;3.90;2.33;;;22.00;65.30;;;;;;5010226;28;20054;-80
2023/07/18 08:00:04;;;;;;;4.82;2.30;;;21.90;65.40;;;;;;5011026;28;20095;-79
2023/07/18 08:02:29;;;;;;;3.75;2.00;;;21.80;63.80;;;;;;5010149;28;20029;-79
2023/07/18 08:04:55;;;;;;;5.95;2.42;;;21.80;61.40;;;;;;5009757;28;20030;-80
2023/07/18 08:07:20;;;;;;;2.72;2.03;;;22.00;62.70;;;;;;5010232;28;20113;-80
2023/07/18 08:09:46;;;;;;;5.07;2.30;;;22.00;62.50;;;;;;5011398;28;20030;-80
2023/07/18 08:12:12;;;;;;;1.85;1.65;;;21.80;60.80;;;;;;5009982;28;20026;-79
2023/07/18 08:14:38;;;;;;;3.75;2.20;;;21.80;62.40;;;;;;5010474;28;20425;-80
2023/07/18 08:17:05;;;;;;;4.15;2.47;;;21.90;63.60;;;;;;5009898;28;20030;-80
2023/07/18 08:19:34;;;;;;;6.93;2.42;;;21.90;62.60;;;;;;5009400;28;20099;-80
2023/07/18 08:22:01;;;;;;;4.00;2.20;;;22.10;61.70;;;;;;5011153;28;20065;-80
2023/07/18 08:24:26;;;;;;;6.38;2.88;;;22.30;61.60;;;;;;5009454;28;20368;-80
2023/07/18 08:26:52;;;;;;;8.60;2.30;;;22.40;61.30;;;;;;5010971;28;20025;-80
2023/07/18 08:29:17;;;;;;;4.72;2.00;;;22.50;59.90;;;;;;5009356;28;20163;-80
2023/07/18 08:31:43;;;;;;;3.78;2.10;;;22.20;58.40;;;;;;5009954;28;20030;-79
2023/07/18 08:34:09;;;;;;;5.60;2.28;;;22.20;57.90;;;;;;5009404;28;20027;-80
2023/07/18 08:36:35;;;;;;;5.03;3.10;;;22.20;59.30;;;;;;5009897;28;20053;-79
2023/07/18 08:39:05;;;;;;;3.00;1.95;;;22.20;58.20;;;;;;5009184;28;20030;-80
2023/07/18 08:41:32;;;;;;;4.35;2.40;;;22.50;58.30;;;;;;5009534;28;20034;-79
2023/07/18 08:43:58;;;;;;;2.13;1.75;;;22.50;58.10;;;;;;5009403;28;20022;-80
2023/07/18 08:46:25;;;;;;;3.15;1.95;;;22.40;59.10;;;;;;4989382;28;20064;-80
2023/07/18 08:48:51;;;;;;;2.63;1.85;;;22.40;59.20;;;;;;4989855;28;20567;-81
2023/07/18 08:51:17;;;;;;;2.33;2.08;;;22.50;60.00;;;;;;4989880;28;20113;-80
2023/07/18 08:53:42;;;;;;;2.95;1.75;;;22.60;59.90;;;;;;4989676;28;20046;-80
2023/07/18 08:56:08;;;;;;;4.90;2.10;;;22.80;58.40;;;;;;5007047;28;20041;-81
2023/07/18 08:58:37;;;;;;;2.78;1.67;;;23.00;57.30;;;;;;5009423;28;20033;-78
2023/07/18 09:01:04;;;;;;;3.65;1.45;;;22.80;56.30;;;;;;5009007;28;20038;-79
2023/07/18 09:03:29;;;;;;;4.82;2.17;;;22.80;56.20;;;;;;5010729;28;20229;-80
2023/07/18 09:05:55;;;;;;;5.00;2.65;;;22.70;57.00;;;;;;5010266;28;20022;-80
2023/07/18 09:08:21;;;;;;;6.40;2.28;;;22.90;57.80;;;;;;5009178;28;20018;-79
2023/07/18 09:10:47;;;;;;;3.08;1.63;;;22.80;57.70;;;;;;5010227;28;20050;-79
2023/07/18 09:13:13;;;;;;;3.95;1.92;;;22.60;56.30;;;;;;5009210;28;20056;-80
2023/07/18 09:15:39;;;;;;;4.88;2.42;;;22.80;57.80;;;;;;5008926;28;20048;-80
2023/07/18 09:18:08;;;;;;;4.68;2.33;;;23.20;58.30;;;;;;5010313;28;20030;-80
2023/07/18 09:20:34;;;;;;;3.63;1.73;;;23.50;56.30;;;;;;5009977;28;20045;-80
2023/07/18 09:23:05;;;;;;;3.58;1.83;;;23.40;55.20;;;;;;5010432;28;20034;-80
2023/07/18 09:25:31;;;;;;;4.15;2.20;;;23.60;56.50;;;;;;5009109;28;20498;-79
2023/07/18 09:27:57;;;;;;;3.75;2.20;;;23.70;56.40;;;;;;5009114;28;20049;-79
2023/07/18 09:30:36;;;;;;;3.53;1.75;;;23.60;55.10;;;;;;5009900;28;20022;-81
2023/07/18 09:33:08;;;;;;;3.00;1.60;;;23.50;54.00;;;;;;5009006;28;20022;-80
2023/07/18 09:35:38;;;;;;;6.95;2.40;;;23.30;53.10;;;;;;5009721;28;20018;-79
2023/07/18 09:38:07;;;;;;;4.50;2.22;;;22.80;53.50;;;;;;5010536;28;20037;-80
2023/07/18 09:40:33;;;;;;;3.53;1.70;;;22.70;54.60;;;;;;5008616;28;20038;-80
2023/07/18 09:43:01;;;;;;;2.80;1.85;;;22.80;55.50;;;;;;5008905;28;20025;-80
2023/07/18 09:45:28;;;;;;;5.53;2.20;;;23.10;56.40;;;;;;5008387;28;20026;-79
2023/07/18 09:47:54;;;;;;;5.28;2.63;;;23.10;57.30;;;;;;5008916;28;20057;-79
2023/07/18 09:50:20;;;;;;;5.82;2.30;;;23.30;56.70;;;;;;5009819;28;20481;-79
2023/07/18 09:52:50;;;;;;;4.15;2.72;;;23.50;55.90;;;;;;5010125;28;20025;-80
2023/07/18 09:55:22;;;;;;;5.53;2.97;;;23.70;54.80;;;;;;5009032;28;20490;-80
2023/07/18 09:57:49;;;;;;;3.03;1.98;;;23.80;55.00;;;;;;5009792;28;20073;-80
2023/07/18 10:00:15;;;;;;;2.53;1.83;;;24.00;54.90;;;;;;5010511;28;20026;-79
2023/07/18 10:02:42;;;;;;;4.43;2.08;;;23.90;51.40;;;;;;5011483;28;20048;-80
2023/07/18 10:05:09;;;;;;;3.05;1.48;;;23.50;52.50;;;;;;5012486;28;20026;-80
2023/07/18 10:07:40;;;;;;;1.50;1.40;;;23.50;53.20;;;;;;5012634;28;20100;-79
2023/07/18 10:10:10;;;;;;;3.70;1.58;;;23.40;52.60;;;;;;5013095;28;20030;-80
2023/07/18 10:12:55;;;;;;;2.15;1.77;;;23.10;52.50;;;;;;5013223;28;20368;-79
2023/07/18 10:15:21;;;;;;;4.10;1.80;;;23.30;54.60;;;;;;5011545;28;20032;-80
2023/07/18 10:17:47;;;;;;;5.32;1.75;;;23.60;54.20;;;;;;5011757;28;20383;-79
2023/07/18 10:20:19;;;;;;;5.18;2.45;;;23.60;54.30;;;;;;5012295;28;20038;-80
2023/07/18 10:22:48;;;;;;;5.15;2.95;;;23.60;54.10;;;;;;5013036;28;20048;-80
2023/07/18 10:25:14;;;;;;;7.18;2.95;;;23.60;54.40;;;;;;5012603;28;20045;-79
2023/07/18 10:27:44;;;;;;;3.53;1.85;;;23.70;54.20;;;;;;5011689;28;20030;-79
2023/07/18 10:30:12;;;;;;;2.20;2.00;;;24.00;54.00;;;;;;5012525;28;20037;-80
2023/07/18 10:32:38;;;;;;;3.50;1.88;;;24.10;54.40;;;;;;5011848;28;20082;-80
2023/07/18 10:35:09;;;;;;;2.00;1.73;;;24.10;53.50;;;;;;5012763;28;20428;-79
2023/07/18 10:37:36;;;;;;;2.00;1.73;;;24.30;54.00;;;;;;5011506;28;20022;-80
2023/07/18 10:40:06;;;;;;;6.10;2.78;;;24.50;53.80;;;;;;5012363;28;20038;-80
2023/07/18 10:42:34;;;;;;;2.47;2.08;;;24.50;52.70;;;;;;5011413;28;20022;-79
2023/07/18 10:45:05;;;;;;;2.72;2.05;;;24.80;51.90;;;;;;5011169;28;20021;-79
2023/07/18 10:47:32;;;;;;;3.58;2.20;;;24.60;50.30;;;;;;5012544;28;20084;-80
2023/07/18 10:49:58;;;;;;;2.58;1.95;;;24.50;51.90;;;;;;5010939;28;20110;-80
2023/07/18 10:52:24;;;;;;;2.13;1.88;;;24.40;51.80;;;;;;5011089;28;20072;-79
2023/07/18 10:54:55;;;;;;;3.58;1.95;;;24.40;52.70;;;;;;5010852;28;20050;-81
2023/07/18 10:57:28;;;;;;;3.45;2.17;;;24.40;52.20;;;;;;4992985;28;20132;-80
2023/07/18 10:59:54;;;;;;;3.95;2.13;;;24.60;52.80;;;;;;5008221;28;20034;-80
2023/07/18 11:02:21;;;;;;;2.60;2.10;;;24.70;52.90;;;;;;4993153;28;20076;-79
2023/07/18 11:04:48;;;;;;;2.25;1.70;;;24.80;52.10;;;;;;4992927;28;20019;-79
2023/07/18 11:07:14;;;;;;;1.75;1.40;;;24.90;50.00;;;;;;4991569;28;20014;-80
2023/07/18 11:09:40;;;;;;;3.30;2.03;;;25.10;49.70;;;;;;4992414;28;20103;-79
2023/07/18 11:12:15;;;;;;;4.07;1.92;;;25.00;49.10;;;;;;4992658;28;20102;-81
2023/07/18 11:14:41;;;;;;;3.72;2.13;;;24.80;50.00;;;;;;4991405;28;20506;-81
2023/07/18 11:17:16;;;;;;;4.00;2.67;;;24.70;49.60;;;;;;4991412;28;20041;-80
2023/07/18 11:19:43;;;;;;;2.90;1.63;;;24.80;49.30;;;;;;4992719;28;20057;-79
2023/07/18 11:22:13;;;;;;;1.80;1.70;;;24.70;48.20;;;;;;4992722;28;20030;-81
2023/07/18 11:24:40;;;;;;;1.85;1.38;;;24.50;46.20;;;;;;4993000;28;20424;-80
2023/07/18 11:27:15;;;;;;;2.90;1.55;;;24.70;48.30;;;;;;4991706;28;20035;-79
2023/07/18 11:29:48;;;;;;;2.05;1.40;;;25.10;47.90;;;;;;4991265;28;20164;-79
2023/07/18 11:32:13;;;;;;;2.28;1.50;;;25.30;47.40;;;;;;4992823;28;20384;-80
2023/07/18 11:34:41;;;;;;;3.10;1.35;;;25.50;47.90;;;;;;4990966;28;20026;-80
2023/07/18 11:37:07;;;;;;;2.40;1.60;;;25.50;44.50;;;;;;4991153;28;20022;-80
2023/07/18 11:39:32;;;;;;;1.90;1.45;;;25.40;45.40;;;;;;4990960;28;20504;-79
2023/07/18 11:42:06;;;;;;;2.75;1.27;;;25.40;44.50;;;;;;4990941;28;20030;-80
2023/07/18 11:44:31;;;;;;;2.13;1.40;;;25.30;44.50;;;;;;4990930;28;20060;-80
2023/07/18 11:46:57;;;;;;;1.65;1.50;;;25.40;45.00;;;;;;4992324;28;20472;-79
2023/07/18 11:49:36;;;;;;;1.65;1.48;;;25.30;45.90;;;;;;4990854;28;20042;-80
2023/07/18 11:52:03;;;;;;;4.22;1.58;;;25.00;44.10;;;;;;4992188;28;20030;-80
2023/07/18 11:54:29;;;;;;;4.40;1.45;;;24.70;42.90;;;;;;4990536;28;20038;-80
2023/07/18 11:56:55;;;;;;;4.72;1.58;;;24.50;43.40;;;;;;4990676;28;20045;-79
2023/07/18 11:59:21;;;;;;;1.48;1.38;;;24.30;43.40;;;;;;4991811;28;20041;-80
2023/07/18 12:01:47;;;;;;;2.70;1.20;;;24.40;45.50;;;;;;4990723;28;20019;-80
2023/07/18 12:04:14;;;;;;;3.05;1.60;;;24.60;45.20;;;;;;4990566;28;20075;-80
2023/07/18 12:06:41;;;;;;;3.58;1.73;;;24.80;46.20;;;;;;4991898;28;20026;-79
2023/07/18 12:09:06;;;;;;;2.78;1.70;;;24.90;46.30;;;;;;4991766;28;20030;-80
2023/07/18 12:11:32;;;;;;;2.60;1.52;;;25.20;47.50;;;;;;4991701;28;20468;-79
2023/07/18 12:13:59;;;;;;;2.42;1.70;;;25.10;47.10;;;;;;4990745;28;20027;-80
2023/07/18 12:16:25;;;;;;;3.65;1.38;;;25.20;46.40;;;;;;4990475;28;20033;-79
2023/07/18 12:18:51;;;;;;;2.25;1.40;;;25.10;46.50;;;;;;4991514;28;20468;-79
2023/07/18 12:21:16;;;;;;;2.38;1.80;;;25.20;46.40;;;;;;4991158;28;20442;-80
2023/07/18 12:23:42;;;;;;;1.58;1.48;;;25.40;47.40;;;;;;4990183;28;20029;-79
2023/07/18 12:26:07;;;;;;;6.15;1.63;;;25.60;46.60;;;;;;4991571;28;20071;-79
2023/07/18 12:28:33;;;;;;;3.53;1.70;;;25.50;46.40;;;;;;4990189;28;20026;-79
2023/07/18 12:30:58;;;;;;;1.90;1.30;;;25.40;46.30;;;;;;4991374;28;20103;-80
2023/07/18 12:33:24;;;;;;;1.98;1.25;;;25.40;45.40;;;;;;4990186;28;20022;-79
2023/07/18 12:35:50;;;;;;;2.97;1.58;;;25.40;46.00;;;;;;4991381;28;20037;-78
2023/07/18 12:38:16;;;;;;;4.97;1.70;;;25.50;46.50;;;;;;4991445;28;20054;-79
2023/07/18 12:40:42;;;;;;;2.72;1.83;;;25.60;46.70;;;;;;4991215;28;20511;-79